createdAt,value
2022-12-11T00:00:34.099Z,1.20
2022-12-11T00:03:00.678Z,1.20
2022-12-11T00:05:27.283Z,1.10
2022-12-11T00:07:53.819Z,1.20
2022-12-11T00:10:20.380Z,1.20
2022-12-11T00:12:46.915Z,1.20
2022-12-11T00:15:13.696Z,1.20
2022-12-11T00:17:40.363Z,1.10
2022-12-11T00:20:07.952Z,1.10
2022-12-11T00:22:34.571Z,1.20
2022-12-11T00:25:01.081Z,1.20
2022-12-11T00:27:27.725Z,1.20
2022-12-11T00:29:54.260Z,1.20
2022-12-11T00:32:20.856Z,1.20
2022-12-11T00:34:47.380Z,1.30
2022-12-11T00:37:13.959Z,1.30
2022-12-11T00:39:40.581Z,1.20
2022-12-11T00:42:07.769Z,1.20
2022-12-11T00:44:34.490Z,1.20
2022-12-11T00:47:01.045Z,1.20
2022-12-11T00:49:27.673Z,1.20
2022-12-11T00:51:54.199Z,1.20
2022-12-11T00:54:20.767Z,1.30
2022-12-11T00:56:47.324Z,1.20
2022-12-11T00:59:13.908Z,1.30
2022-12-11T01:01:40.450Z,1.20
2022-12-11T01:04:07.062Z,1.20
2022-12-11T01:06:33.705Z,1.20
2022-12-11T01:09:18.871Z,1.20
2022-12-11T01:11:45.447Z,1.20
2022-12-11T01:14:12.084Z,1.10
2022-12-11T01:16:38.712Z,1.10
2022-12-11T01:19:05.300Z,1.10
2022-12-11T01:21:31.949Z,1.20
2022-12-11T01:23:58.509Z,1.00
2022-12-11T01:26:25.163Z,1.00
2022-12-11T01:28:51.804Z,1.00
2022-12-11T01:31:19.334Z,1.10
2022-12-11T01:33:46.232Z,1.00
2022-12-11T01:36:18.061Z,0.80
2022-12-11T01:38:45.053Z,1.00
2022-12-11T01:41:11.703Z,1.00
2022-12-11T01:43:57.193Z,1.00
2022-12-11T01:46:24.245Z,1.00
2022-12-11T01:48:50.846Z,1.00
2022-12-11T01:51:17.687Z,0.90
2022-12-11T01:53:48.216Z,1.10
2022-12-11T01:56:14.888Z,1.00
2022-12-11T01:58:47.784Z,1.00
2022-12-11T02:01:18.423Z,1.00
2022-12-11T02:03:45.003Z,1.00
2022-12-11T02:06:30.416Z,0.90
2022-12-11T02:08:57.055Z,1.00
2022-12-11T02:11:25.844Z,0.90
2022-12-11T02:14:01.925Z,0.90
2022-12-11T02:16:54.807Z,0.90
2022-12-11T02:19:45.697Z,0.90
2022-12-11T02:22:17.856Z,0.90
2022-12-11T02:24:44.463Z,0.90
2022-12-11T02:27:11.042Z,0.90
2022-12-11T02:29:51.820Z,0.90
2022-12-11T02:32:24.525Z,0.90
2022-12-11T02:34:55.968Z,0.90
2022-12-11T02:37:24.596Z,1.00
2022-12-11T02:39:53.042Z,1.00
2022-12-11T02:42:20.364Z,1.00
2022-12-11T02:44:48.580Z,0.80
2022-12-11T02:47:16.398Z,0.90
2022-12-11T02:49:44.396Z,1.00
2022-12-11T02:52:12.359Z,0.90
2022-12-11T02:54:39.435Z,0.90
2022-12-11T02:57:15.175Z,0.90
2022-12-11T02:59:44.050Z,1.00
2022-12-11T03:02:11.856Z,1.00
2022-12-11T03:04:38.883Z,1.00
2022-12-11T03:07:15.744Z,1.00
2022-12-11T03:09:43.480Z,1.00
2022-12-11T03:12:11.638Z,1.00
2022-12-11T03:14:39.385Z,1.00
2022-12-11T03:17:14.501Z,1.00
2022-12-11T03:20:05.040Z,1.00
2022-12-11T03:22:36.979Z,0.90
2022-12-11T03:25:15.448Z,1.00
2022-12-11T03:27:41.953Z,0.90
2022-12-11T03:30:11.035Z,1.00
2022-12-11T03:32:50.170Z,0.90
2022-12-11T03:35:23.205Z,1.00
2022-12-11T03:37:51.170Z,0.90
2022-12-11T03:40:19.209Z,0.90
2022-12-11T03:42:47.268Z,0.80
2022-12-11T03:45:14.498Z,0.90
2022-12-11T03:47:41.299Z,0.90
2022-12-11T03:50:09.593Z,0.90
2022-12-11T03:52:42.511Z,0.70
2022-12-11T03:55:13.246Z,0.70
2022-12-11T03:57:39.889Z,0.70
2022-12-11T04:00:24.882Z,0.70
2022-12-11T04:03:13.568Z,0.70
2022-12-11T04:05:41.706Z,0.70
2022-12-11T04:08:08.558Z,0.70
2022-12-11T04:10:35.200Z,0.60
2022-12-11T04:13:01.734Z,0.60
2022-12-11T04:15:28.291Z,0.60
2022-12-11T04:18:13.458Z,0.60
2022-12-11T04:20:58.552Z,0.60
2022-12-11T04:23:43.596Z,0.50
2022-12-11T04:26:12.343Z,0.50
2022-12-11T04:28:39.330Z,0.50
2022-12-11T04:31:06.381Z,0.50
2022-12-11T04:33:32.991Z,0.50
2022-12-11T04:36:00.257Z,0.50
2022-12-11T04:38:26.984Z,0.50
2022-12-11T04:41:00.883Z,0.50
2022-12-11T04:43:27.687Z,0.40
2022-12-11T04:46:04.690Z,0.50
2022-12-11T04:48:31.257Z,0.50
2022-12-11T04:50:57.932Z,0.40
2022-12-11T04:53:24.987Z,0.50
2022-12-11T04:55:51.868Z,0.50
2022-12-11T04:58:18.390Z,0.50
2022-12-11T05:00:45.267Z,0.50
2022-12-11T05:03:11.918Z,0.50
2022-12-11T05:05:38.498Z,0.40
2022-12-11T05:08:05.453Z,0.50
2022-12-11T05:10:32.021Z,0.40
2022-12-11T05:12:58.612Z,0.40
2022-12-11T05:15:25.159Z,0.40
2022-12-11T05:17:51.666Z,0.40
2022-12-11T05:20:18.267Z,0.40
2022-12-11T05:22:44.827Z,0.40
2022-12-11T05:25:11.621Z,0.40
2022-12-11T05:27:38.377Z,0.30
2022-12-11T05:30:05.660Z,0.30
2022-12-11T05:32:32.219Z,0.50
2022-12-11T05:34:58.831Z,0.40
2022-12-11T05:37:25.395Z,0.30
2022-12-11T05:39:51.922Z,0.30
2022-12-11T05:42:18.570Z,0.30
2022-12-11T05:44:45.119Z,0.20
2022-12-11T05:47:11.652Z,0.20
2022-12-11T05:49:38.176Z,0.20
2022-12-11T05:52:04.807Z,0.10
2022-12-11T05:54:31.364Z,0.10
2022-12-11T05:56:57.947Z,0.00
2022-12-11T05:59:24.556Z,0.00
2022-12-11T06:01:51.373Z,0.00
2022-12-11T06:04:18.100Z,0.00
2022-12-11T06:06:44.858Z,-0.10
2022-12-11T06:09:13.825Z,0.00
2022-12-11T06:11:40.491Z,-0.10
2022-12-11T06:14:07.096Z,-0.20
2022-12-11T06:16:33.763Z,-0.20
2022-12-11T06:19:00.356Z,-0.30
2022-12-11T06:21:29.593Z,-0.30
2022-12-11T06:23:57.264Z,-0.40
2022-12-11T06:26:24.145Z,-0.30
2022-12-11T06:28:50.808Z,-0.30
2022-12-11T06:31:17.933Z,-0.40
2022-12-11T06:33:44.691Z,-0.50
2022-12-11T06:36:13.047Z,-0.50
2022-12-11T06:38:39.942Z,-0.60
2022-12-11T06:41:07.576Z,-0.70
2022-12-11T06:43:35.011Z,-0.70
2022-12-11T06:46:05.229Z,-0.80
2022-12-11T06:48:32.094Z,-0.80
2022-12-11T06:50:58.824Z,-0.80
2022-12-11T06:53:25.348Z,-0.90
2022-12-11T06:55:51.908Z,-0.90
2022-12-11T06:58:18.414Z,-1.00
2022-12-11T07:00:44.954Z,-1.10
2022-12-11T07:03:11.662Z,-1.10
2022-12-11T07:05:38.183Z,-1.10
2022-12-11T07:08:04.800Z,-1.10
2022-12-11T07:10:32.333Z,-1.20
2022-12-11T07:12:58.890Z,-1.10
2022-12-11T07:15:25.615Z,-1.20
2022-12-11T07:17:52.251Z,-1.30
2022-12-11T07:20:18.813Z,-1.30
2022-12-11T07:22:46.860Z,-1.30
2022-12-11T07:25:13.962Z,-1.30
2022-12-11T07:27:41.479Z,-1.30
2022-12-11T07:30:08.764Z,-1.30
2022-12-11T07:32:35.425Z,-1.20
2022-12-11T07:35:02.037Z,-1.20
2022-12-11T07:37:28.580Z,-1.20
2022-12-11T07:39:55.124Z,-1.20
2022-12-11T07:42:21.649Z,-1.10
2022-12-11T07:44:48.159Z,-1.10
2022-12-11T07:47:15.086Z,-1.10
2022-12-11T07:49:41.589Z,-1.00
2022-12-11T07:52:08.346Z,-0.90
2022-12-11T07:54:34.921Z,-0.80
2022-12-11T07:57:01.617Z,-0.90
2022-12-11T07:59:28.184Z,-0.80
2022-12-11T08:01:54.744Z,-0.70
2022-12-11T08:04:21.273Z,-0.70
2022-12-11T08:06:47.942Z,-0.70
2022-12-11T08:09:20.749Z,-0.70
2022-12-11T08:11:50.987Z,-0.60
2022-12-11T08:14:17.681Z,-0.60
2022-12-11T08:16:44.720Z,-0.50
2022-12-11T08:19:11.978Z,-0.50
2022-12-11T08:21:38.891Z,-0.40
2022-12-11T08:24:05.737Z,-0.30
2022-12-11T08:26:32.857Z,-0.20
2022-12-11T08:29:00.573Z,-0.10
2022-12-11T08:31:27.259Z,0.00
2022-12-11T08:33:55.129Z,0.10
2022-12-11T08:36:23.283Z,0.10
2022-12-11T08:38:50.299Z,0.20
2022-12-11T08:41:17.984Z,0.30
2022-12-11T08:43:44.684Z,0.40
2022-12-11T08:46:11.760Z,0.50
2022-12-11T08:48:39.235Z,0.40
2022-12-11T08:51:06.818Z,0.40
2022-12-11T08:53:33.813Z,0.40
2022-12-11T08:56:04.048Z,0.40
2022-12-11T08:58:30.608Z,0.40
2022-12-11T09:00:57.566Z,0.40
2022-12-11T09:03:24.590Z,0.50
2022-12-11T09:05:51.390Z,0.50
2022-12-11T09:08:18.037Z,0.50
2022-12-11T09:10:44.650Z,0.50
2022-12-11T09:13:11.167Z,0.50
2022-12-11T09:15:40.484Z,0.60
2022-12-11T09:18:07.396Z,0.70
2022-12-11T09:20:33.992Z,0.70
2022-12-11T09:23:01.206Z,0.70
2022-12-11T09:25:27.796Z,0.80
2022-12-11T09:27:54.311Z,0.80
2022-12-11T09:30:20.839Z,0.90
2022-12-11T09:32:47.388Z,0.90
2022-12-11T09:35:14.003Z,0.90
2022-12-11T09:37:40.597Z,0.90
2022-12-11T09:40:09.358Z,0.90
2022-12-11T09:42:47.001Z,0.90
2022-12-11T09:45:15.042Z,0.80
2022-12-11T09:47:43.953Z,0.80
2022-12-11T09:50:10.464Z,0.90
2022-12-11T09:52:57.021Z,1.00
2022-12-11T09:55:25.015Z,1.00
2022-12-11T09:57:57.890Z,1.00
2022-12-11T10:00:39.631Z,1.00
2022-12-11T10:03:25.295Z,1.00
2022-12-11T10:05:57.378Z,1.10
2022-12-11T10:08:33.587Z,1.20
2022-12-11T10:11:05.685Z,1.20
2022-12-11T10:13:35.366Z,1.10
2022-12-11T10:16:14.276Z,1.10
2022-12-11T10:18:41.171Z,1.20
2022-12-11T10:21:07.892Z,1.10
2022-12-11T10:23:38.167Z,1.10
2022-12-11T10:26:24.945Z,1.10
2022-12-11T10:28:51.978Z,1.10
2022-12-11T10:31:32.923Z,1.10
2022-12-11T10:34:11.960Z,1.10
2022-12-11T10:36:39.296Z,1.10
2022-12-11T10:39:14.183Z,1.10
2022-12-11T10:41:42.886Z,1.10
2022-12-11T10:44:17.585Z,1.20
2022-12-11T10:46:44.902Z,1.20
2022-12-11T10:49:26.399Z,1.20
2022-12-11T10:51:54.339Z,2.40
2022-12-11T10:54:29.729Z,3.50
2022-12-11T10:56:56.587Z,2.70
2022-12-11T10:59:31.183Z,2.30
2022-12-11T11:01:57.915Z,2.00
2022-12-11T11:04:29.511Z,1.80
2022-12-11T11:07:28.688Z,1.70
2022-12-11T11:10:24.291Z,1.60
2022-12-11T11:12:59.676Z,1.50
2022-12-11T11:15:27.694Z,1.40
2022-12-11T11:17:56.238Z,1.40
2022-12-11T11:20:24.574Z,1.40
2022-12-11T11:22:52.925Z,1.30
2022-12-11T11:25:21.646Z,1.30
2022-12-11T11:27:53.311Z,1.20
2022-12-11T11:30:24.198Z,1.20
2022-12-11T11:32:54.373Z,1.20
2022-12-11T11:35:23.020Z,1.20
2022-12-11T11:37:55.731Z,1.30
2022-12-11T11:40:30.368Z,1.30
2022-12-11T11:42:59.770Z,1.30
2022-12-11T11:45:31.847Z,1.30
2022-12-11T11:48:17.474Z,1.30
2022-12-11T11:50:45.636Z,1.40
2022-12-11T11:53:16.925Z,1.40
2022-12-11T11:55:55.570Z,1.40
2022-12-11T11:58:27.614Z,1.30
2022-12-11T12:00:54.747Z,1.40
2022-12-11T12:03:22.568Z,1.40
2022-12-11T12:05:49.066Z,1.40
2022-12-11T12:08:24.391Z,1.50
2022-12-11T12:11:00.496Z,1.60
2022-12-11T12:13:49.864Z,1.70
2022-12-11T12:16:51.433Z,1.70
2022-12-11T12:19:29.199Z,1.60
2022-12-11T12:21:55.991Z,1.50
2022-12-11T12:24:34.873Z,1.60
2022-12-11T12:27:17.602Z,1.60
2022-12-11T12:29:59.145Z,1.50
2022-12-11T12:32:36.828Z,1.50
2022-12-11T12:35:22.124Z,1.50
2022-12-11T12:37:48.768Z,1.60
2022-12-11T12:40:21.472Z,1.60
2022-12-11T12:42:49.837Z,1.60
2022-12-11T12:45:16.376Z,1.60
2022-12-11T12:47:46.701Z,1.60
2022-12-11T12:50:18.533Z,1.60
2022-12-11T12:52:45.315Z,1.60
2022-12-11T12:55:28.877Z,1.50
2022-12-11T12:58:00.174Z,1.50
2022-12-11T13:00:28.329Z,1.60
2022-12-11T13:02:56.186Z,1.70
2022-12-11T13:05:24.292Z,1.60
2022-12-11T13:07:54.516Z,1.60
2022-12-11T13:10:30.209Z,1.60
2022-12-11T13:12:57.151Z,1.60
2022-12-11T13:15:30.820Z,1.70
2022-12-11T13:17:57.987Z,1.60
2022-12-11T13:20:26.080Z,1.60
2022-12-11T13:22:55.435Z,1.80
2022-12-11T13:25:24.587Z,2.00
2022-12-11T13:27:51.169Z,2.00
2022-12-11T13:30:24.835Z,2.00
2022-12-11T13:33:00.415Z,2.00
2022-12-11T13:35:27.187Z,2.00
2022-12-11T13:37:55.208Z,2.00
2022-12-11T13:40:23.954Z,2.00
2022-12-11T13:42:52.828Z,2.10
2022-12-11T13:45:22.900Z,1.90
2022-12-11T13:47:49.667Z,1.80
2022-12-11T13:50:20.572Z,1.80
2022-12-11T13:52:54.229Z,1.80
2022-12-11T13:55:23.127Z,1.90
2022-12-11T13:57:49.648Z,1.80
2022-12-11T14:00:23.798Z,1.70
2022-12-11T14:02:51.437Z,1.60
2022-12-11T14:05:18.231Z,1.60
2022-12-11T14:07:49.123Z,1.50
2022-12-11T14:10:18.551Z,1.50
2022-12-11T14:12:48.683Z,1.40
2022-12-11T14:15:15.598Z,1.50
2022-12-11T14:17:47.078Z,1.40
2022-12-11T14:20:21.836Z,1.40
2022-12-11T14:22:48.431Z,1.30
2022-12-11T14:25:24.723Z,1.20
2022-12-11T14:27:52.671Z,1.20
2022-12-11T14:30:24.348Z,1.10
2022-12-11T14:32:51.685Z,1.20
2022-12-11T14:35:28.624Z,1.10
2022-12-11T14:37:56.241Z,1.10
2022-12-11T14:40:25.050Z,1.00
2022-12-11T14:43:00.442Z,1.00
2022-12-11T14:45:34.561Z,0.90
2022-12-11T14:48:02.149Z,0.90
2022-12-11T14:50:37.969Z,0.80
2022-12-11T14:53:13.800Z,0.80
2022-12-11T14:55:40.952Z,0.80
2022-12-11T14:58:15.080Z,0.70
2022-12-11T15:00:41.656Z,0.70
2022-12-11T15:03:28.456Z,0.60
2022-12-11T15:05:55.934Z,0.50
2022-12-11T15:08:26.816Z,0.40
2022-12-11T15:10:59.691Z,0.50
2022-12-11T15:13:26.558Z,0.50
2022-12-11T15:15:53.673Z,0.40
2022-12-11T15:18:23.249Z,0.40
2022-12-11T15:20:52.202Z,0.40
2022-12-11T15:23:18.955Z,0.40
2022-12-11T15:25:52.531Z,0.30
2022-12-11T15:28:45.215Z,0.30
2022-12-11T15:31:25.470Z,0.30
2022-12-11T15:33:52.346Z,0.30
2022-12-11T15:36:23.716Z,0.40
2022-12-11T15:38:50.381Z,0.40
2022-12-11T15:41:20.945Z,0.30
2022-12-11T15:43:47.846Z,0.30
2022-12-11T15:46:14.414Z,0.30
2022-12-11T15:48:40.979Z,0.30
2022-12-11T15:51:07.540Z,0.30
2022-12-11T15:53:34.081Z,0.30
2022-12-11T15:56:00.682Z,0.30
2022-12-11T15:58:27.949Z,0.20
2022-12-11T16:00:54.935Z,-0.10
2022-12-11T16:03:22.536Z,0.20
2022-12-11T16:05:49.866Z,0.20
2022-12-11T16:08:17.747Z,0.20
2022-12-11T16:10:44.763Z,0.20
2022-12-11T16:13:11.460Z,0.20
2022-12-11T16:15:38.814Z,0.20
2022-12-11T16:18:06.947Z,0.20
2022-12-11T16:20:33.690Z,0.10
2022-12-11T16:23:00.500Z,0.20
2022-12-11T16:25:27.133Z,0.10
2022-12-11T16:27:58.355Z,0.20
2022-12-11T16:30:25.547Z,0.10
2022-12-11T16:32:52.342Z,0.10
2022-12-11T16:35:19.315Z,0.10
2022-12-11T16:37:48.320Z,0.00
2022-12-11T16:40:14.943Z,0.00
2022-12-11T16:42:41.513Z,1.80
2022-12-11T16:45:11.158Z,4.70
2022-12-11T16:47:37.968Z,5.50
2022-12-11T16:50:04.665Z,6.40
2022-12-11T16:52:31.915Z,6.50
2022-12-11T16:54:58.507Z,6.90
2022-12-11T16:57:25.542Z,7.20
2022-12-11T16:59:52.211Z,7.00
2022-12-11T17:02:18.817Z,6.80
2022-12-11T17:04:52.102Z,7.20
2022-12-11T17:07:20.339Z,6.00
2022-12-11T17:09:47.073Z,4.40
2022-12-11T17:12:13.821Z,3.50
2022-12-11T17:14:40.380Z,2.80
2022-12-11T17:17:07.110Z,2.20
2022-12-11T17:19:33.828Z,1.90
2022-12-11T17:22:00.406Z,1.60
2022-12-11T17:24:27.021Z,1.30
2022-12-11T17:26:54.582Z,1.10
2022-12-11T17:29:21.940Z,0.90
2022-12-11T17:31:48.473Z,0.80
2022-12-11T17:34:15.859Z,0.80
2022-12-11T17:36:42.389Z,0.70
2022-12-11T17:39:09.100Z,0.70
2022-12-11T17:41:35.756Z,0.90
2022-12-11T17:44:02.265Z,0.70
2022-12-11T17:46:28.882Z,0.60
2022-12-11T17:48:56.314Z,0.60
2022-12-11T17:51:24.431Z,0.60
2022-12-11T17:53:51.921Z,0.60
2022-12-11T17:56:18.545Z,0.60
2022-12-11T17:58:45.078Z,0.60
2022-12-11T18:01:13.108Z,0.50
2022-12-11T18:03:39.777Z,0.60
2022-12-11T18:06:08.168Z,0.40
2022-12-11T18:08:34.701Z,0.50
2022-12-11T18:11:05.775Z,0.50
2022-12-11T18:13:32.313Z,0.50
2022-12-11T18:16:06.957Z,0.50
2022-12-11T18:18:33.626Z,0.50
2022-12-11T18:21:00.584Z,0.40
2022-12-11T18:23:27.537Z,0.40
2022-12-11T18:25:54.553Z,0.50
2022-12-11T18:28:21.232Z,0.40
2022-12-11T18:30:47.839Z,0.40
2022-12-11T18:33:14.512Z,0.40
2022-12-11T18:35:41.272Z,0.40
2022-12-11T18:38:07.820Z,0.30
2022-12-11T18:40:34.397Z,0.40
2022-12-11T18:43:00.956Z,0.40
2022-12-11T18:45:27.512Z,0.40
2022-12-11T18:47:56.394Z,0.40
2022-12-11T18:50:23.023Z,0.40
2022-12-11T18:52:53.991Z,0.40
2022-12-11T18:55:20.876Z,0.50
2022-12-11T18:57:47.491Z,0.30
2022-12-11T19:00:14.291Z,0.40
2022-12-11T19:02:40.828Z,0.40
2022-12-11T19:05:07.665Z,0.40
2022-12-11T19:07:34.250Z,0.40
2022-12-11T19:10:00.849Z,0.50
2022-12-11T19:12:27.442Z,0.40
2022-12-11T19:14:54.539Z,0.40
2022-12-11T19:17:21.090Z,0.30
2022-12-11T19:19:47.757Z,0.30
2022-12-11T19:22:15.024Z,0.30
2022-12-11T19:24:41.636Z,0.30
2022-12-11T19:27:13.242Z,0.50
2022-12-11T19:29:40.278Z,0.40
2022-12-11T19:32:06.835Z,0.40
2022-12-11T19:34:33.377Z,0.40
2022-12-11T19:37:00.243Z,0.40
2022-12-11T19:39:26.826Z,0.40
2022-12-11T19:41:53.345Z,0.50
2022-12-11T19:44:19.853Z,0.50
2022-12-11T19:46:46.419Z,0.40
2022-12-11T19:49:13.128Z,0.30
2022-12-11T19:51:40.945Z,0.40
2022-12-11T19:54:08.058Z,0.40
2022-12-11T19:56:34.807Z,0.40
2022-12-11T19:59:02.183Z,0.50
2022-12-11T20:01:30.977Z,0.30
2022-12-11T20:03:59.494Z,0.40
2022-12-11T20:06:33.279Z,0.30
2022-12-11T20:09:00.258Z,0.40
2022-12-11T20:11:27.093Z,0.50
2022-12-11T20:13:55.538Z,0.40
2022-12-11T20:16:39.593Z,0.40
2022-12-11T20:19:08.990Z,0.40
2022-12-11T20:21:35.507Z,0.40
2022-12-11T20:24:02.099Z,0.40
2022-12-11T20:26:30.938Z,0.40
2022-12-11T20:28:57.688Z,0.40
2022-12-11T20:31:24.832Z,0.50
2022-12-11T20:33:52.262Z,0.60
2022-12-11T20:36:19.877Z,0.40
2022-12-11T20:38:46.593Z,0.40
2022-12-11T20:41:14.309Z,0.40
2022-12-11T20:43:40.933Z,0.40
2022-12-11T20:46:08.383Z,0.40
2022-12-11T20:48:35.379Z,0.40
2022-12-11T20:51:02.748Z,0.40
2022-12-11T20:53:29.514Z,0.40
2022-12-11T20:55:56.042Z,0.40
2022-12-11T20:58:22.976Z,0.40
2022-12-11T21:00:49.784Z,0.40
2022-12-11T21:03:16.392Z,0.40
2022-12-11T21:05:43.687Z,0.40
2022-12-11T21:08:10.396Z,0.40
2022-12-11T21:10:41.483Z,0.40
2022-12-11T21:13:08.534Z,0.40
2022-12-11T21:15:36.118Z,0.40
2022-12-11T21:18:02.802Z,0.40
2022-12-11T21:20:29.358Z,0.40
2022-12-11T21:22:57.534Z,0.40
2022-12-11T21:25:24.384Z,0.40
2022-12-11T21:27:51.531Z,0.40
2022-12-11T21:30:18.254Z,0.40
2022-12-11T21:32:44.896Z,0.30
2022-12-11T21:35:12.053Z,0.20
2022-12-11T21:37:41.644Z,0.30
2022-12-11T21:40:08.556Z,0.30
2022-12-11T21:42:35.105Z,0.30
2022-12-11T21:47:48.213Z,0.30
2022-12-11T21:50:14.719Z,0.30
2022-12-11T21:52:41.261Z,0.30
2022-12-11T21:55:08.003Z,0.30
2022-12-11T21:57:34.554Z,0.30
2022-12-11T22:00:01.098Z,0.30
2022-12-11T22:02:27.664Z,0.40
2022-12-11T22:04:54.281Z,0.40
2022-12-11T22:07:21.014Z,0.30
2022-12-11T22:09:47.583Z,0.30
2022-12-11T22:12:21.723Z,0.30
2022-12-11T22:14:48.415Z,0.30
2022-12-11T22:17:15.085Z,0.30
2022-12-11T22:19:41.623Z,0.30
2022-12-11T22:22:08.178Z,0.20
2022-12-11T22:24:34.807Z,0.20
2022-12-11T22:27:01.337Z,0.20
2022-12-11T22:29:28.041Z,0.40
2022-12-11T22:31:54.793Z,0.20
2022-12-11T22:34:21.590Z,0.20
2022-12-11T22:36:48.161Z,0.30
2022-12-11T22:39:15.200Z,0.30
2022-12-11T22:41:42.394Z,0.20
2022-12-11T22:44:13.334Z,0.30
2022-12-11T22:46:39.871Z,0.30
2022-12-11T22:49:06.494Z,0.30
2022-12-11T22:51:33.157Z,0.30
2022-12-11T22:53:59.725Z,0.20
2022-12-11T22:56:26.252Z,0.20
2022-12-11T22:58:52.810Z,0.20
2022-12-11T23:01:21.048Z,0.30
2022-12-11T23:03:48.254Z,0.30
2022-12-11T23:06:16.869Z,0.20
2022-12-11T23:08:43.869Z,0.20
2022-12-11T23:11:21.222Z,0.20
2022-12-11T23:13:47.758Z,0.20
2022-12-11T23:16:14.415Z,0.20
2022-12-11T23:18:41.109Z,0.20
2022-12-11T23:21:08.095Z,0.40
2022-12-11T23:23:34.910Z,0.30
2022-12-11T23:26:01.573Z,0.40
2022-12-11T23:28:28.181Z,0.20
2022-12-11T23:30:55.047Z,0.30
2022-12-11T23:33:21.612Z,0.30
2022-12-11T23:35:48.287Z,0.20
2022-12-11T23:38:16.412Z,0.20
2022-12-11T23:40:42.966Z,0.30
2022-12-11T23:43:09.497Z,0.30
2022-12-11T23:45:36.057Z,0.50
2022-12-11T23:48:02.666Z,0.20
2022-12-11T23:50:31.138Z,0.20
2022-12-11T23:52:57.671Z,0.20
2022-12-11T23:55:25.324Z,0.30
2022-12-11T23:57:51.840Z,0.20
